Time;durP1;ratioP1;P1;durP2;ratioP2;P2;SDS_P1;SDS_P2;PMS_P1;PMS_P2;Temp;Humidity;BMP_temperature;BMP_pressure;BME280_temperature;BME280_humidity;BME280_pressure;Samples;Min_cycle;Max_cycle;Signal;HPM_P1;HPM_P2
2022/04/03 00:01:14;;;;;;;13.68;6.13;;;2.10;99.90;;;;;;5027914;28;20069;-82
2022/04/03 00:03:43;;;;;;;11.25;6.65;;;2.70;99.90;;;;;;5023904;28;20030;-81
2022/04/03 00:06:09;;;;;;;10.27;6.95;;;;;;;;;;5019064;28;20177;-82
2022/04/03 00:08:35;;;;;;;12.70;7.10;;;;;;;;;;5020766;28;20064;-81
2022/04/03 00:11:01;;;;;;;10.75;6.97;;;1.80;99.90;;;;;;5001654;28;20026;-82
2022/04/03 00:13:27;;;;;;;12.65;7.32;;;1.80;99.90;;;;;;5017497;28;20095;-83
2022/04/03 00:15:52;;;;;;;13.20;7.00;;;1.80;99.90;;;;;;4998309;28;20040;-80
2022/04/03 00:18:18;;;;;;;10.88;6.90;;;1.90;99.90;;;;;;5003604;28;20038;-81
2022/04/03 00:20:46;;;;;;;11.38;6.55;;;4.50;99.90;;;;;;5018726;28;20037;-81
2022/04/03 00:23:12;;;;;;;13.75;7.53;;;2.10;99.90;;;;;;5017337;28;20134;-82
2022/04/03 00:25:38;;;;;;;14.80;7.82;;;1.90;99.90;;;;;;5016379;28;20407;-81
2022/04/03 00:28:04;;;;;;;12.40;7.32;;;1.70;99.90;;;;;;5015042;28;20531;-81
2022/04/03 00:30:29;;;;;;;12.43;6.95;;;2.00;99.90;;;;;;4997776;28;20035;-81
2022/04/03 00:32:55;;;;;;;10.57;6.80;;;;;;;;;;5000771;28;20682;-81
2022/04/03 00:35:21;;;;;;;9.18;5.85;;;1.80;99.90;;;;;;5018251;28;20026;-82
2022/04/03 00:37:47;;;;;;;10.23;6.10;;;;;;;;;;5019533;28;20045;-82
2022/04/03 00:40:14;;;;;;;10.52;6.40;;;1.80;99.90;;;;;;5026089;28;20025;-82
2022/04/03 00:42:40;;;;;;;10.82;7.68;;;4.40;99.90;;;;;;5013907;28;20032;-81
2022/04/03 00:45:07;;;;;;;11.77;6.68;;;4.50;99.90;;;;;;5031283;28;20026;-83
2022/04/03 00:47:33;;;;;;;10.73;6.53;;;1.70;99.90;;;;;;5011503;28;20045;-82
2022/04/03 00:50:00;;;;;;;11.70;6.57;;;1.80;99.90;;;;;;5031082;28;20423;-82
2022/04/03 00:52:27;;;;;;;13.55;6.55;;;4.20;99.90;;;;;;5020109;28;20032;-82
2022/04/03 00:54:53;;;;;;;14.75;6.15;;;2.60;99.90;;;;;;5025590;28;20033;-82
2022/04/03 00:57:22;;;;;;;12.88;6.35;;;1.80;99.90;;;;;;5020933;28;20030;-82
2022/04/03 00:59:50;;;;;;;8.38;6.05;;;1.80;99.90;;;;;;5024695;28;20080;-81
2022/04/03 01:02:16;;;;;;;10.55;6.78;;;3.60;99.90;;;;;;5009113;28;20056;-80
2022/04/03 01:04:42;;;;;;;11.23;5.90;;;3.20;99.90;;;;;;5019671;28;20029;-81
2022/04/03 01:07:08;;;;;;;9.90;5.70;;;4.10;99.90;;;;;;5036295;28;20033;-81
2022/04/03 01:09:36;;;;;;;9.77;5.90;;;;;;;;;;5012998;28;20403;-82
2022/04/03 01:12:03;;;;;;;11.55;6.30;;;1.80;99.90;;;;;;5026130;28;20025;-82
2022/04/03 01:14:38;;;;;;;8.55;5.60;;;1.90;99.90;;;;;;5023913;28;20018;-81
2022/04/03 01:17:05;;;;;;;9.43;6.15;;;1.30;99.90;;;;;;5027379;28;20042;-81
2022/04/03 01:19:31;;;;;;;10.63;5.88;;;;;;;;;;5019996;28;20049;-82
2022/04/03 01:21:57;;;;;;;10.73;5.82;;;1.90;99.90;;;;;;5021929;28;20053;-82
2022/04/03 01:24:24;;;;;;;11.00;6.63;;;0.70;99.90;;;;;;5021353;28;20037;-82
2022/04/03 01:26:50;;;;;;;12.98;6.43;;;-0.40;99.90;;;;;;5016774;28;20055;-82
2022/04/03 01:29:19;;;;;;;9.90;6.30;;;1.00;99.90;;;;;;5018578;28;20033;-79
2022/04/03 01:31:46;;;;;;;11.27;6.18;;;3.50;99.90;;;;;;5021630;28;20089;-80
2022/04/03 01:34:13;;;;;;;11.73;6.40;;;;;;;;;;5006054;28;20183;-82
2022/04/03 01:36:39;;;;;;;12.27;5.45;;;2.10;99.90;;;;;;5015042;28;20092;-82
2022/04/03 01:39:05;;;;;;;8.75;5.55;;;;;;;;;;5014023;28;20049;-81
2022/04/03 01:41:31;;;;;;;7.63;4.85;;;;;;;;;;5025166;28;20053;-82
2022/04/03 01:43:57;;;;;;;9.45;5.32;;;;;;;;;;5017576;28;20472;-81
2022/04/03 01:49:13;;;;;;;8.67;4.93;;;2.10;99.90;;;;;;5035073;28;20054;-82
2022/04/03 01:51:39;;;;;;;6.93;4.82;;;2.10;99.90;;;;;;5040393;28;20025;-83
2022/04/03 01:54:05;;;;;;;8.77;5.28;;;2.10;99.90;;;;;;5023836;28;20486;-83
2022/04/03 01:56:34;;;;;;;8.45;5.25;;;2.70;99.90;;;;;;5020543;28;20025;-83
2022/04/03 01:59:01;;;;;;;8.02;5.30;;;2.20;99.90;;;;;;5036575;28;20036;-83
2022/04/03 02:01:32;;;;;;;12.70;6.10;;;2.20;99.90;;;;;;5043758;28;20041;-83
2022/04/03 02:03:58;;;;;;;;;;;2.20;99.90;;;;;;5027455;28;20030;-82
2022/04/03 02:06:24;;;;;;;7.63;4.50;;;2.30;99.90;;;;;;5030099;28;20290;-82
2022/04/03 02:08:51;;;;;;;10.18;4.82;;;2.10;99.90;;;;;;5039157;28;20032;-84
2022/04/03 02:11:17;;;;;;;9.38;5.65;;;2.30;99.90;;;;;;5025484;28;20020;-82
2022/04/03 02:13:43;;;;;;;9.50;5.18;;;2.30;99.90;;;;;;5021441;28;20079;-83
2022/04/03 02:16:09;;;;;;;9.35;4.88;;;2.30;99.90;;;;;;5020263;28;20059;-82
2022/04/03 02:18:36;;;;;;;8.80;5.10;;;2.40;99.90;;;;;;5037955;28;20048;-83
2022/04/03 02:21:02;;;;;;;7.68;5.10;;;2.80;99.90;;;;;;5023338;28;20030;-84
2022/04/03 02:23:29;;;;;;;10.50;5.38;;;2.40;99.90;;;;;;5029302;28;20076;-85
2022/04/03 02:25:55;;;;;;;10.48;5.22;;;2.40;99.90;;;;;;5030652;28;20028;-84
2022/04/03 02:28:22;;;;;;;8.88;5.65;;;2.40;99.90;;;;;;5032346;28;20025;-83
2022/04/03 02:30:48;;;;;;;9.65;5.70;;;2.30;99.90;;;;;;5029642;28;20032;-82
2022/04/03 02:33:14;;;;;;;8.93;5.15;;;2.40;99.90;;;;;;5029544;28;20029;-84
2022/04/03 02:35:41;;;;;;;9.30;5.47;;;2.40;99.90;;;;;;5032785;28;20021;-82
2022/04/03 02:38:10;;;;;;;8.63;5.18;;;2.40;99.90;;;;;;5041178;28;20105;-84
2022/04/03 02:40:36;;;;;;;9.63;5.03;;;2.40;99.90;;;;;;5022354;28;20056;-81
2022/04/03 02:43:02;;;;;;;8.68;5.22;;;2.40;99.90;;;;;;5022728;28;20029;-82
2022/04/03 02:45:29;;;;;;;9.82;4.65;;;2.40;99.90;;;;;;5026486;28;20033;-82
2022/04/03 02:47:55;;;;;;;8.05;4.50;;;2.80;99.90;;;;;;5018684;28;20026;-83
2022/04/03 02:50:24;;;;;;;8.20;4.63;;;2.40;99.90;;;;;;5024460;28;20025;-84
2022/04/03 02:52:51;;;;;;;8.38;4.90;;;2.50;99.90;;;;;;5025411;28;20033;-83
2022/04/03 02:55:19;;;;;;;7.95;4.32;;;2.50;99.90;;;;;;5023023;28;20025;-84
2022/04/03 02:57:45;;;;;;;9.20;4.70;;;2.50;99.90;;;;;;5030720;28;20472;-84
2022/04/03 03:00:15;;;;;;;8.30;3.88;;;2.50;99.90;;;;;;5026419;28;20025;-83
2022/04/03 03:02:47;;;;;;;9.15;4.55;;;2.50;99.90;;;;;;5023544;28;20084;-83
2022/04/03 03:05:14;;;;;;;6.90;4.75;;;2.50;99.90;;;;;;5020843;28;20026;-83
2022/04/03 03:07:41;;;;;;;7.38;4.38;;;2.50;99.90;;;;;;5026744;28;20021;-84
2022/04/03 03:10:12;;;;;;;7.38;4.50;;;2.50;99.90;;;;;;5023743;28;20036;-81
2022/04/03 03:12:38;;;;;;;7.05;4.32;;;2.50;99.90;;;;;;5028057;28;20028;-82
2022/04/03 03:15:05;;;;;;;8.30;4.18;;;2.50;99.90;;;;;;5020569;28;20022;-83
2022/04/03 03:17:34;;;;;;;6.97;4.25;;;2.50;99.90;;;;;;5021378;28;20029;-82
2022/04/03 03:20:00;;;;;;;7.25;4.75;;;2.50;99.90;;;;;;5044094;28;20028;-82
2022/04/03 03:22:26;;;;;;;6.80;3.90;;;2.50;99.90;;;;;;5022384;28;20428;-81
2022/04/03 03:24:52;;;;;;;9.45;4.43;;;2.60;99.90;;;;;;5023314;28;20324;-82
2022/04/03 03:27:19;;;;;;;7.60;4.32;;;2.60;99.90;;;;;;5037354;28;20049;-80
2022/04/03 03:29:45;;;;;;;9.55;4.88;;;2.60;99.90;;;;;;5027024;28;20056;-81
2022/04/03 03:32:11;;;;;;;10.35;4.50;;;2.50;99.90;;;;;;5031707;28;20032;-83
2022/04/03 03:34:37;;;;;;;7.93;4.40;;;2.50;99.90;;;;;;5022130;28;20330;-81
2022/04/03 03:37:04;;;;;;;6.53;4.15;;;2.50;99.90;;;;;;5033468;28;20698;-81
2022/04/03 03:39:31;;;;;;;8.60;5.03;;;2.50;99.90;;;;;;5027089;28;20033;-83
2022/04/03 03:41:57;;;;;;;7.72;4.20;;;2.60;99.90;;;;;;5036892;28;20116;-80
2022/04/03 03:44:24;;;;;;;9.35;5.03;;;2.60;99.90;;;;;;5020078;28;20041;-83
2022/04/03 03:46:50;;;;;;;6.07;3.97;;;3.00;99.90;;;;;;5034536;28;20018;-82
2022/04/03 03:49:16;;;;;;;7.82;4.80;;;2.50;99.90;;;;;;5042316;28;20064;-82
2022/04/03 03:51:43;;;;;;;7.15;4.72;;;2.60;99.90;;;;;;5040315;28;20021;-83
2022/04/03 03:54:10;;;;;;;7.32;4.10;;;2.60;99.90;;;;;;5042151;28;20053;-82
2022/04/03 03:56:36;;;;;;;7.95;4.72;;;2.60;99.90;;;;;;5040075;28;20025;-83
2022/04/03 03:59:05;;;;;;;7.88;3.97;;;2.60;99.90;;;;;;5038306;28;20146;-86
2022/04/03 04:01:31;;;;;;;7.40;4.72;;;2.60;99.90;;;;;;5041321;28;20022;-85
2022/04/03 04:03:57;;;;;;;9.82;4.68;;;2.50;99.90;;;;;;5061990;28;20013;-85
2022/04/03 04:06:23;;;;;;;8.10;4.68;;;2.80;99.90;;;;;;5037939;28;20025;-86
2022/04/03 04:08:50;;;;;;;6.82;4.43;;;2.60;99.90;;;;;;5038988;28;20089;-87
2022/04/03 04:11:17;;;;;;;9.40;4.60;;;2.60;99.90;;;;;;5036924;28;20020;-84
2022/04/03 04:13:43;;;;;;;7.38;4.70;;;2.70;99.90;;;;;;5041124;28;20084;-85
2022/04/03 04:16:10;;;;;;;10.10;5.00;;;2.70;99.90;;;;;;5054920;28;20040;-84
2022/04/03 04:18:37;;;;;;;7.00;4.53;;;2.70;99.90;;;;;;5041005;28;20020;-84
2022/04/03 04:21:06;;;;;;;8.70;4.07;;;2.60;99.90;;;;;;5071754;28;20041;-85
2022/04/03 04:23:33;;;;;;;8.10;4.90;;;2.60;99.90;;;;;;5064510;28;21475;-84
2022/04/03 04:25:59;;;;;;;7.88;4.45;;;2.60;99.90;;;;;;5058026;28;20021;-83
2022/04/03 04:28:25;;;;;;;7.32;4.60;;;2.50;99.90;;;;;;5054073;28;20068;-81
2022/04/03 04:30:51;;;;;;;8.38;4.47;;;2.50;99.90;;;;;;5056659;28;20018;-81
2022/04/03 04:33:17;;;;;;;8.57;4.78;;;2.50;99.90;;;;;;5042526;28;20055;-82
2022/04/03 04:35:43;;;;;;;7.40;4.43;;;2.50;99.90;;;;;;5030734;28;20040;-81
2022/04/03 04:38:09;;;;;;;6.93;4.65;;;2.50;99.90;;;;;;5007999;28;20038;-83
2022/04/03 04:40:36;;;;;;;9.15;4.30;;;2.40;99.90;;;;;;5007937;28;20030;-79
2022/04/03 04:43:02;;;;;;;7.25;4.85;;;2.50;99.90;;;;;;5000148;28;20035;-80
2022/04/03 04:45:28;;;;;;;7.78;5.10;;;2.60;99.90;;;;;;5026716;28;20030;-83
2022/04/03 04:48:00;;;;;;;7.63;5.03;;;3.60;99.90;;;;;;5027134;28;20036;-82
2022/04/03 04:50:31;;;;;;;7.32;5.07;;;2.50;99.90;;;;;;5023273;28;20026;-84
2022/04/03 04:52:58;;;;;;;7.72;4.70;;;2.80;99.90;;;;;;5026613;28;20026;-81
2022/04/03 04:55:25;;;;;;;8.55;4.72;;;2.60;99.90;;;;;;5026566;28;20030;-87
2022/04/03 04:57:53;;;;;;;8.30;5.13;;;2.50;99.90;;;;;;5034358;28;20034;-84
2022/04/03 05:00:21;;;;;;;7.80;4.82;;;2.60;99.90;;;;;;5026680;28;20025;-82
2022/04/03 05:02:48;;;;;;;8.63;4.75;;;2.60;99.90;;;;;;5026038;28;20025;-81
2022/04/03 05:05:19;;;;;;;7.35;5.00;;;2.50;99.90;;;;;;5033685;28;20026;-80
2022/04/03 05:07:47;;;;;;;8.93;4.90;;;2.50;99.90;;;;;;5026807;28;20576;-83
2022/04/03 05:10:16;;;;;;;8.40;5.00;;;2.50;99.90;;;;;;5026535;28;20033;-83
2022/04/03 05:12:45;;;;;;;8.88;4.78;;;2.50;99.90;;;;;;5025117;28;20401;-82
2022/04/03 05:15:12;;;;;;;7.50;4.88;;;2.50;99.90;;;;;;5028608;28;20032;-82
2022/04/03 05:17:43;;;;;;;8.75;4.65;;;2.90;99.90;;;;;;5024819;28;20041;-81
2022/04/03 05:20:13;;;;;;;8.00;4.85;;;2.50;99.90;;;;;;5030707;28;20022;-82
2022/04/03 05:22:43;;;;;;;7.43;4.68;;;3.70;99.90;;;;;;5052883;28;20041;-83
2022/04/03 05:25:11;;;;;;;7.80;4.88;;;3.10;99.90;;;;;;5016998;28;20082;-81
2022/04/03 05:27:38;;;;;;;9.82;5.00;;;2.60;99.90;;;;;;5025079;28;20097;-82
2022/04/03 05:30:04;;;;;;;9.80;5.38;;;3.10;99.90;;;;;;5021136;28;20029;-82
2022/04/03 05:32:31;;;;;;;8.10;5.35;;;2.60;99.90;;;;;;5023531;28;20393;-82
2022/04/03 05:34:58;;;;;;;7.60;5.30;;;2.60;99.90;;;;;;5024022;28;20087;-82
2022/04/03 05:37:24;;;;;;;10.13;4.97;;;2.20;99.90;;;;;;5033560;28;20382;-82
2022/04/03 05:39:53;;;;;;;8.10;4.88;;;2.60;99.90;;;;;;5025087;28;20037;-82
2022/04/03 05:42:20;;;;;;;7.93;4.82;;;2.60;99.90;;;;;;5024544;28;20097;-81
2022/04/03 05:44:47;;;;;;;8.65;5.00;;;2.70;99.90;;;;;;5036976;28;20036;-82
2022/04/03 05:47:12;;;;;;;9.38;5.72;;;2.70;99.90;;;;;;5027769;28;20033;-84
2022/04/03 05:49:38;;;;;;;11.10;5.40;;;2.70;99.90;;;;;;5018565;28;20095;-80
2022/04/03 05:52:04;;;;;;;7.50;4.78;;;3.80;99.90;;;;;;5022280;28;20068;-82
2022/04/03 05:54:30;;;;;;;7.18;4.97;;;2.70;99.90;;;;;;5018686;28;20392;-81
2022/04/03 05:56:56;;;;;;;8.68;5.57;;;3.50;99.90;;;;;;5023340;28;20104;-81
2022/04/03 05:59:22;;;;;;;11.52;5.45;;;4.50;99.90;;;;;;5042283;28;20089;-83
2022/04/03 06:01:48;;;;;;;7.68;5.20;;;2.70;99.90;;;;;;5043930;28;20536;-82
2022/04/03 06:04:15;;;;;;;10.07;5.40;;;2.70;99.90;;;;;;5048974;28;20040;-82
2022/04/03 06:06:41;;;;;;;8.95;6.00;;;2.90;99.90;;;;;;5041505;28;20029;-84
2022/04/03 06:09:08;;;;;;;9.15;5.20;;;2.80;99.90;;;;;;5038333;28;20025;-82
2022/04/03 06:11:34;;;;;;;7.35;5.40;;;2.80;99.90;;;;;;5050791;28;20040;-84
2022/04/03 06:14:00;;;;;;;8.35;5.38;;;2.80;99.90;;;;;;5032321;28;20037;-83
2022/04/03 06:16:26;;;;;;;8.68;5.10;;;3.00;99.90;;;;;;5029784;28;20048;-84
2022/04/03 06:18:53;;;;;;;8.93;5.30;;;2.80;99.90;;;;;;5043375;28;20041;-83
2022/04/03 06:21:20;;;;;;;8.40;5.07;;;3.80;99.90;;;;;;5027199;28;20543;-82
2022/04/03 06:23:45;;;;;;;11.25;5.70;;;4.50;99.90;;;;;;5029289;28;20025;-83
2022/04/03 06:26:12;;;;;;;8.57;5.30;;;2.80;99.90;;;;;;5028931;28;20057;-82
2022/04/03 06:28:38;;;;;;;8.35;5.10;;;2.90;99.90;;;;;;5029491;28;20100;-82
2022/04/03 06:31:04;;;;;;;9.23;5.45;;;2.90;99.90;;;;;;5031091;28;20036;-84
2022/04/03 06:33:30;;;;;;;8.07;5.22;;;2.90;99.90;;;;;;5027255;28;20036;-83
2022/04/03 06:35:56;;;;;;;9.35;5.68;;;3.70;99.90;;;;;;5027985;28;20009;-85
2022/04/03 06:38:22;;;;;;;8.55;5.47;;;3.00;99.90;;;;;;5049677;28;20033;-83
2022/04/03 06:40:58;;;;;;;10.65;5.30;;;3.20;99.90;;;;;;5028513;28;20029;-82
2022/04/03 06:43:27;;;;;;;9.68;5.35;;;3.10;99.90;;;;;;5045480;28;20045;-84
2022/04/03 06:46:02;;;;;;;9.45;5.38;;;3.20;99.90;;;;;;5046383;28;20033;-82
2022/04/03 06:48:29;;;;;;;8.80;5.45;;;3.40;99.90;;;;;;5030722;28;20040;-82
2022/04/03 06:50:55;;;;;;;8.75;5.03;;;3.40;99.90;;;;;;5030770;28;20029;-82
2022/04/03 06:53:21;;;;;;;10.63;5.10;;;3.50;99.90;;;;;;5045548;28;20022;-81
2022/04/03 06:55:46;;;;;;;9.02;4.80;;;4.50;99.90;;;;;;5017957;28;20032;-81
2022/04/03 06:58:12;;;;;;;9.23;4.82;;;4.50;99.90;;;;;;5017991;28;20371;-81
2022/04/03 07:00:40;;;;;;;8.93;4.57;;;3.70;99.90;;;;;;5018901;28;20382;-80
2022/04/03 07:03:06;;;;;;;7.03;4.80;;;4.50;99.90;;;;;;5015386;28;20036;-81
2022/04/03 07:05:31;;;;;;;7.05;3.80;;;5.20;99.90;;;;;;5021894;28;20018;-80
2022/04/03 07:07:57;;;;;;;7.07;4.05;;;4.20;99.90;;;;;;5027096;28;20029;-81
2022/04/03 07:10:24;;;;;;;6.65;4.07;;;4.20;99.90;;;;;;5024563;28;20040;-83
2022/04/03 07:12:50;;;;;;;5.75;4.05;;;4.40;99.20;;;;;;5016557;28;20052;-82
2022/04/03 07:15:16;;;;;;;6.03;3.30;;;4.40;99.00;;;;;;5024141;28;20364;-81
2022/04/03 07:17:43;;;;;;;5.93;3.88;;;4.40;98.60;;;;;;5015495;28;20040;-82
2022/04/03 07:20:15;;;;;;;6.70;4.25;;;4.50;97.90;;;;;;5028616;28;20051;-81
2022/04/03 07:22:42;;;;;;;6.95;4.43;;;4.50;98.00;;;;;;5040382;28;20432;-82
2022/04/03 07:25:12;;;;;;;7.25;4.13;;;4.50;97.70;;;;;;5053083;28;20836;-84
2022/04/03 07:27:39;;;;;;;6.33;4.00;;;4.60;97.70;;;;;;5030924;28;20010;-84
2022/04/03 07:30:06;;;;;;;5.75;3.72;;;4.70;97.90;;;;;;5037389;28;20327;-82
2022/04/03 07:32:32;;;;;;;6.97;3.78;;;4.80;97.10;;;;;;5021084;28;20606;-81
2022/04/03 07:34:58;;;;;;;6.43;3.60;;;4.80;96.50;;;;;;5015881;28;20100;-80
2022/04/03 07:37:23;;;;;;;6.10;4.18;;;5.70;96.30;;;;;;5022414;28;20037;-82
2022/04/03 07:39:49;;;;;;;7.40;4.13;;;5.10;96.10;;;;;;5037438;28;20649;-82
2022/04/03 07:42:15;;;;;;;7.18;4.10;;;5.20;96.00;;;;;;5019390;28;20025;-79
2022/04/03 07:44:41;;;;;;;7.28;3.90;;;5.00;95.90;;;;;;5017466;28;20057;-85
2022/04/03 07:47:06;;;;;;;6.07;3.97;;;6.10;95.60;;;;;;5023176;28;20029;-80
2022/04/03 07:49:32;;;;;;;7.07;3.50;;;5.30;95.00;;;;;;5010925;28;20037;-79
2022/04/03 07:51:58;;;;;;;7.38;3.83;;;5.30;95.30;;;;;;5029955;28;20041;-80
2022/04/03 07:54:28;;;;;;;5.97;3.72;;;6.50;94.50;;;;;;5121773;22;20048;-87
2022/04/03 07:56:56;;;;;;;7.18;3.78;;;5.40;94.00;;;;;;5031398;28;20128;-83
2022/04/03 07:59:28;;;;;;;5.63;3.75;;;5.60;95.20;;;;;;5060013;28;20037;-84
2022/04/03 08:01:56;;;;;;;6.18;3.58;;;3.80;93.80;;;;;;5066229;28;20029;-85
2022/04/03 08:04:26;;;;;;;6.38;3.90;;;5.80;93.20;;;;;;5066218;28;20037;-84
2022/04/03 08:06:53;;;;;;;6.88;3.53;;;5.90;92.20;;;;;;5052336;28;20033;-84
2022/04/03 08:09:46;;;;;;;6.45;3.50;;;5.90;92.00;;;;;;5063690;28;20041;-85
2022/04/03 08:12:12;;;;;;;5.90;3.50;;;6.70;92.50;;;;;;5056206;28;20101;-84
2022/04/03 08:14:38;;;;;;;7.22;3.95;;;6.00;91.40;;;;;;5051666;28;20041;-87
2022/04/03 08:17:14;;;;;;;6.22;3.50;;;6.10;91.20;;;;;;5049748;28;20073;-85
2022/04/03 08:19:43;;;;;;;4.80;3.15;;;6.80;91.60;;;;;;5063286;23;20020;-82
2022/04/03 08:22:09;;;;;;;4.93;3.33;;;6.10;90.00;;;;;;5025993;28;20465;-84
2022/04/03 08:24:34;;;;;;;5.07;3.72;;;6.30;90.00;;;;;;5013888;28;20075;-82
2022/04/03 08:27:00;;;;;;;5.47;3.50;;;6.30;88.90;;;;;;5035369;28;20466;-80
2022/04/03 08:29:26;;;;;;;8.00;4.22;;;6.40;88.00;;;;;;5011921;28;20049;-77
2022/04/03 08:31:52;;;;;;;6.47;3.75;;;6.50;87.40;;;;;;5024864;28;20053;-80
2022/04/03 08:34:18;;;;;;;5.20;3.20;;;6.50;87.20;;;;;;5009749;28;20056;-80
2022/04/03 08:36:44;;;;;;;9.50;3.35;;;6.50;86.60;;;;;;5011743;28;20045;-80
2022/04/03 08:39:09;;;;;;;5.20;3.40;;;6.60;85.30;;;;;;5011256;28;20036;-82
2022/04/03 08:41:36;;;;;;;6.93;3.42;;;6.70;84.40;;;;;;5014981;28;20029;-80
2022/04/03 08:44:02;;;;;;;6.38;3.58;;;6.60;84.40;;;;;;5037034;28;20038;-80
2022/04/03 08:46:47;;;;;;;7.20;4.13;;;6.60;83.70;;;;;;5034829;28;20056;-77
2022/04/03 08:49:15;;;;;;;7.68;3.28;;;6.30;83.80;;;;;;5007821;28;20056;-80
2022/04/03 08:51:42;;;;;;;6.57;3.30;;;8.40;84.40;;;;;;5018117;28;20030;-82
2022/04/03 08:54:09;;;;;;;5.18;2.95;;;5.90;82.40;;;;;;5012402;28;20029;-77
2022/04/03 08:56:35;;;;;;;5.50;3.22;;;7.20;80.70;;;;;;5024810;28;20029;-81
2022/04/03 08:59:00;;;;;;;4.53;2.58;;;5.70;79.40;;;;;;5032700;28;20410;-80
2022/04/03 09:01:28;;;;;;;4.65;2.53;;;5.60;79.00;;;;;;5037296;28;20230;-81
2022/04/03 09:03:54;;;;;;;4.13;2.72;;;5.60;77.90;;;;;;5009836;28;20038;-80
2022/04/03 09:06:23;;;;;;;5.15;2.70;;;5.50;77.90;;;;;;5013913;28;20025;-81
2022/04/03 09:08:50;;;;;;;3.55;2.47;;;5.50;77.90;;;;;;5016993;28;20033;-79
2022/04/03 09:11:16;;;;;;;4.28;2.75;;;5.60;76.40;;;;;;5021001;28;20641;-79
2022/04/03 09:13:45;;;;;;;4.65;3.22;;;5.70;76.10;;;;;;5020286;28;20026;-83
2022/04/03 09:16:16;;;;;;;4.70;2.88;;;5.90;75.90;;;;;;5048188;28;20044;-83
2022/04/03 09:18:51;;;;;;;3.83;2.70;;;6.30;75.40;;;;;;5018321;28;20033;-82
2022/04/03 09:21:22;;;;;;;4.47;2.42;;;6.60;74.80;;;;;;5005749;28;20040;-79
2022/04/03 09:23:57;;;;;;;;;;;6.70;70.40;;;;;;5029395;28;20370;-79
2022/04/03 09:26:27;;;;;;;6.07;3.25;;;6.60;70.40;;;;;;5043231;28;19917;-79
2022/04/03 09:29:18;;;;;;;4.63;2.50;;;6.30;70.90;;;;;;5045951;28;20029;-82
2022/04/03 09:31:46;;;;;;;6.38;2.47;;;6.20;68.40;;;;;;5026406;28;20017;-81
2022/04/03 09:34:20;;;;;;;4.55;2.25;;;6.10;68.90;;;;;;5023229;28;20084;-79
2022/04/03 09:37:05;;;;;;;3.70;2.30;;;6.10;68.80;;;;;;5047129;28;20030;-79
2022/04/03 09:39:33;;;;;;;3.35;2.20;;;6.00;68.70;;;;;;5035936;28;20044;-82
2022/04/03 09:42:12;;;;;;;4.75;2.30;;;5.90;68.20;;;;;;5038645;28;20064;-84
2022/04/03 09:44:45;;;;;;;6.78;2.40;;;5.80;67.50;;;;;;5038389;28;20093;-84
2022/04/03 09:47:17;;;;;;;4.78;2.13;;;6.00;64.90;;;;;;5052561;28;20059;-84
2022/04/03 09:50:15;;;;;;;4.00;2.10;;;6.00;65.80;;;;;;5039061;28;20061;-85
2022/04/03 09:53:12;;;;;;;3.13;2.10;;;6.00;65.50;;;;;;5033003;28;20033;-83
2022/04/03 09:55:55;;;;;;;4.57;1.90;;;6.10;61.10;;;;;;5028752;28;20021;-83
2022/04/03 09:58:26;;;;;;;3.85;2.08;;;6.20;61.70;;;;;;5052595;28;20034;-82
2022/04/03 10:00:53;;;;;;;4.38;2.05;;;5.50;60.60;;;;;;5016891;28;20057;-82
2022/04/03 10:03:19;;;;;;;7.60;2.22;;;6.40;61.00;;;;;;5007437;28;20094;-85
2022/04/03 10:05:45;;;;;;;3.22;1.92;;;6.60;60.70;;;;;;5032893;28;20500;-82
2022/04/03 10:08:13;;;;;;;4.95;2.53;;;6.60;60.50;;;;;;5046202;28;20036;-82
2022/04/03 10:10:41;;;;;;;3.08;1.90;;;6.70;59.40;;;;;;5027556;28;20512;-84
2022/04/03 10:13:10;;;;;;;2.88;2.10;;;8.70;60.50;;;;;;5045637;28;20040;-82
2022/04/03 10:15:36;;;;;;;3.17;1.60;;;6.80;58.30;;;;;;5030174;28;20021;-82
2022/04/03 10:18:05;;;;;;;3.50;1.95;;;6.80;57.80;;;;;;5027490;28;20021;-79
2022/04/03 10:20:33;;;;;;;4.15;1.95;;;6.70;57.80;;;;;;5047285;28;20034;-81
2022/04/03 10:23:05;;;;;;;2.92;1.70;;;6.80;57.20;;;;;;5013452;28;20030;-82
2022/04/03 10:25:38;;;;;;;3.00;1.85;;;6.70;57.10;;;;;;5045496;28;20025;-83
2022/04/03 10:28:07;;;;;;;3.97;1.90;;;6.80;57.50;;;;;;5035732;28;20188;-83
2022/04/03 10:30:37;;;;;;;3.28;2.30;;;6.90;57.50;;;;;;5015753;28;20036;-85
2022/04/03 10:33:04;;;;;;;3.47;1.90;;;7.10;56.70;;;;;;5037571;28;20037;-84
2022/04/03 10:35:30;;;;;;;5.13;2.40;;;7.20;56.00;;;;;;5041932;28;20033;-85
2022/04/03 10:38:05;;;;;;;4.53;2.00;;;7.30;56.20;;;;;;5043907;28;20033;-85
2022/04/03 10:40:35;;;;;;;3.75;2.28;;;7.40;54.60;;;;;;5033887;28;20025;-88
2022/04/03 10:43:06;;;;;;;4.28;2.30;;;7.70;55.20;;;;;;5007423;28;20048;-81
2022/04/03 10:45:34;;;;;;;2.80;1.88;;;7.30;55.00;;;;;;5025711;28;20063;-82
2022/04/03 10:48:19;;;;;;;3.45;2.13;;;7.40;54.60;;;;;;5016305;28;20036;-78
2022/04/03 10:51:01;;;;;;;4.15;2.20;;;7.50;54.80;;;;;;5028322;28;20018;-80
2022/04/03 10:53:31;;;;;;;3.83;2.03;;;7.50;55.40;;;;;;5007692;28;20041;-81
2022/04/03 10:55:59;;;;;;;3.10;1.70;;;7.60;55.00;;;;;;5015355;28;20083;-81
2022/04/03 10:58:38;;;;;;;4.85;2.20;;;7.70;55.20;;;;;;5034546;28;20029;-85
2022/04/03 11:01:04;;;;;;;4.18;2.15;;;7.70;57.50;;;;;;5029900;28;20088;-84
2022/04/03 11:03:32;;;;;;;3.80;2.08;;;7.60;54.70;;;;;;5031001;28;20099;-81
2022/04/03 11:06:17;;;;;;;4.45;2.28;;;7.50;54.00;;;;;;5015840;28;20039;-82
2022/04/03 11:08:54;;;;;;;2.63;1.63;;;7.20;55.50;;;;;;5029096;28;20367;-85
2022/04/03 11:11:31;;;;;;;3.13;1.85;;;7.10;55.40;;;;;;5014443;28;20037;-80
2022/04/03 11:14:00;;;;;;;2.92;1.67;;;6.90;55.20;;;;;;5036736;28;20046;-82
2022/04/03 11:16:26;;;;;;;3.80;1.73;;;6.70;54.60;;;;;;5036952;28;20021;-82
2022/04/03 11:18:52;;;;;;;6.28;1.92;;;6.90;55.10;;;;;;5021435;28;20067;-82
2022/04/03 11:21:27;;;;;;;3.15;1.80;;;8.10;55.80;;;;;;5031271;28;20115;-81
2022/04/03 11:23:56;;;;;;;3.53;1.60;;;7.40;54.70;;;;;;5020922;28;20022;-81
2022/04/03 11:26:23;;;;;;;2.75;1.90;;;7.80;54.90;;;;;;5017925;28;20037;-83
2022/04/03 11:28:48;;;;;;;3.25;1.95;;;8.00;52.90;;;;;;5037946;28;20033;-83
2022/04/03 11:31:15;;;;;;;2.75;1.80;;;8.20;52.60;;;;;;5038048;28;20084;-80
2022/04/03 11:33:42;;;;;;;3.05;1.70;;;8.30;52.70;;;;;;5022979;28;20397;-81
2022/04/03 11:36:09;;;;;;;2.60;2.00;;;8.50;54.20;;;;;;5015507;28;20449;-82
2022/04/03 11:38:50;;;;;;;6.55;1.80;;;8.30;51.70;;;;;;5015439;28;20033;-81
2022/04/03 11:41:31;;;;;;;2.88;1.73;;;8.20;52.10;;;;;;5035666;28;20030;-81
2022/04/03 11:44:06;;;;;;;3.58;2.10;;;8.10;51.00;;;;;;5034009;28;20037;-84
2022/04/03 11:46:38;;;;;;;3.33;1.60;;;7.80;51.40;;;;;;5019615;28;20034;-81
2022/04/03 11:49:14;;;;;;;6.65;2.90;;;7.80;51.50;;;;;;5016840;28;20612;-81
2022/04/03 11:51:41;;;;;;;3.92;1.70;;;7.60;51.70;;;;;;5018334;28;20028;-82
2022/04/03 11:54:10;;;;;;;5.50;2.50;;;7.40;51.40;;;;;;5017649;28;20029;-83
2022/04/03 11:56:38;;;;;;;3.03;1.88;;;7.20;52.30;;;;;;5036252;28;20018;-81
2022/04/03 11:59:05;;;;;;;2.83;1.70;;;7.50;52.20;;;;;;5022748;28;20120;-80
2022/04/03 12:01:39;;;;;;;2.97;1.70;;;7.80;51.90;;;;;;5027289;28;20028;-81
2022/04/03 12:04:12;;;;;;;3.67;2.10;;;8.20;51.40;;;;;;5034373;28;20144;-79
2022/04/03 12:06:39;;;;;;;2.58;1.77;;;8.60;51.90;;;;;;5031876;28;20068;-82
2022/04/03 12:09:14;;;;;;;2.33;1.45;;;10.80;50.30;;;;;;5014351;28;20033;-81
2022/04/03 12:11:45;;;;;;;2.50;1.80;;;8.80;50.10;;;;;;5035431;28;20017;-83
2022/04/03 12:14:12;;;;;;;5.13;2.88;;;8.60;49.60;;;;;;5044113;28;20030;-87
2022/04/03 12:16:39;;;;;;;3.70;1.85;;;8.40;50.80;;;;;;5023753;28;20045;-84
2022/04/03 12:19:09;;;;;;;3.10;1.60;;;8.30;50.80;;;;;;5041870;28;20033;-85
2022/04/03 12:21:41;;;;;;;3.78;1.65;;;8.00;50.80;;;;;;5024998;28;20093;-81
2022/04/03 12:24:18;;;;;;;3.20;1.65;;;7.90;51.20;;;;;;5039597;28;20018;-81
2022/04/03 12:26:54;;;;;;;3.08;1.63;;;7.80;50.90;;;;;;5038932;28;20038;-79
2022/04/03 12:29:23;;;;;;;16.00;12.02;;;7.60;50.60;;;;;;5027842;28;20061;-82
2022/04/03 12:32:12;;;;;;;4.90;3.38;;;7.80;51.10;;;;;;5037325;28;20055;-80
2022/04/03 12:34:42;;;;;;;3.92;1.80;;;8.30;50.00;;;;;;5033087;28;20020;-79
2022/04/03 12:37:09;;;;;;;3.75;1.90;;;8.60;50.20;;;;;;5039811;28;20029;-84
2022/04/03 12:39:42;;;;;;;3.03;1.85;;;8.70;49.60;;;;;;5057031;28;20021;-79
2022/04/03 12:42:32;;;;;;;2.28;1.52;;;8.70;50.00;;;;;;5054794;28;20017;-78
2022/04/03 12:45:00;;;;;;;3.95;1.80;;;8.60;49.00;;;;;;5038388;28;20047;-79
2022/04/03 12:47:32;;;;;;;3.40;1.80;;;8.50;49.60;;;;;;5040868;28;20021;-82
2022/04/03 12:50:10;;;;;;;4.13;1.73;;;8.30;50.40;;;;;;5036442;28;20048;-81
2022/04/03 12:52:48;;;;;;;3.20;1.83;;;8.30;50.40;;;;;;5055165;28;20022;-80
2022/04/03 12:55:35;;;;;;;11.43;1.80;;;8.60;50.10;;;;;;5059803;28;20017;-79
2022/04/03 13:01:10;;;;;;;4.47;1.80;;;9.20;49.20;;;;;;5057516;28;20059;-79
2022/04/03 13:03:44;;;;;;;4.00;1.75;;;9.40;49.70;;;;;;5037164;28;20037;-80
2022/04/03 13:06:26;;;;;;;3.28;1.75;;;9.50;48.90;;;;;;5050105;28;20038;-80
2022/04/03 13:09:02;;;;;;;3.15;1.60;;;9.60;49.10;;;;;;5051591;28;20060;-82
2022/04/03 13:11:45;;;;;;;2.38;1.52;;;9.60;48.30;;;;;;5047943;28;20029;-79